createdAt,value
2022-09-20T00:01:12.979Z,87.42
2022-09-20T00:03:42.548Z,87.20
2022-09-20T00:06:12.503Z,86.77
2022-09-20T00:08:41.333Z,87.24
2022-09-20T00:11:13.135Z,87.22
2022-09-20T00:13:41.255Z,87.19
2022-09-20T00:16:12.805Z,87.24
2022-09-20T00:18:41.158Z,87.45
2022-09-20T00:21:13.988Z,86.50
2022-09-20T00:23:41.583Z,86.26
2022-09-20T00:26:10.947Z,86.58
2022-09-20T00:28:38.575Z,86.52
2022-09-20T00:31:06.781Z,86.65
2022-09-20T00:33:48.682Z,86.57
2022-09-20T00:36:17.443Z,87.21
2022-09-20T00:38:45.210Z,86.40
2022-09-20T00:41:14.879Z,86.77
2022-09-20T00:43:44.655Z,87.08
2022-09-20T00:46:24.203Z,86.76
2022-09-20T00:48:56.972Z,87.01
2022-09-20T00:51:29.847Z,87.46
2022-09-20T00:54:00.986Z,87.04
2022-09-20T00:56:34.103Z,86.96
2022-09-20T00:59:07.325Z,87.05
2022-09-20T01:01:36.421Z,86.76
2022-09-20T01:04:04.748Z,87.19
2022-09-20T01:06:35.154Z,87.16
2022-09-20T01:09:07.797Z,87.13
2022-09-20T01:11:39.159Z,87.36
2022-09-20T01:14:07.202Z,87.22
2022-09-20T01:16:35.306Z,87.11
2022-09-20T01:19:12.986Z,87.11
2022-09-20T01:21:40.882Z,86.86
2022-09-20T01:24:17.455Z,86.68
2022-09-20T01:27:00.275Z,86.61
2022-09-20T01:29:40.952Z,86.72
2022-09-20T01:32:14.928Z,86.66
2022-09-20T01:34:48.103Z,86.80
2022-09-20T01:37:22.931Z,86.62
2022-09-20T01:39:58.661Z,86.55
2022-09-20T01:42:33.583Z,86.72
2022-09-20T01:45:11.566Z,86.83
2022-09-20T01:47:45.387Z,86.65
2022-09-20T01:50:22.158Z,85.77
2022-09-20T01:53:11.313Z,84.66
2022-09-20T01:56:12.449Z,85.10
2022-09-20T01:59:25.269Z,85.21
2022-09-20T02:02:07.872Z,85.22
2022-09-20T02:05:00.423Z,85.61
2022-09-20T02:07:57.693Z,85.68
2022-09-20T02:10:59.746Z,85.50
2022-09-20T02:13:32.479Z,86.34
2022-09-20T02:16:14.507Z,86.41
2022-09-20T02:19:06.179Z,85.74
2022-09-20T02:21:40.298Z,86.79
2022-09-20T02:24:23.306Z,87.04
2022-09-20T02:27:08.791Z,88.02
2022-09-20T02:29:45.932Z,87.66
2022-09-20T02:32:29.199Z,88.06
2022-09-20T02:35:14.988Z,88.69
2022-09-20T02:37:58.853Z,89.03
2022-09-20T02:40:53.464Z,88.68
2022-09-20T02:43:31.509Z,88.79
2022-09-20T02:46:04.570Z,88.30
2022-09-20T02:48:50.924Z,87.96
2022-09-20T02:51:27.066Z,87.88
2022-09-20T02:54:06.178Z,88.13
2022-09-20T02:56:44.006Z,88.44
2022-09-20T02:59:25.112Z,88.54
2022-09-20T03:02:04.674Z,88.50
2022-09-20T03:04:43.723Z,88.66
2022-09-20T03:07:22.143Z,88.76
2022-09-20T03:10:05.158Z,88.37
2022-09-20T03:12:44.667Z,87.93
2022-09-20T03:15:21.056Z,88.19
2022-09-20T03:17:53.688Z,88.37
2022-09-20T03:20:35.379Z,88.00
2022-09-20T03:23:14.719Z,87.87
2022-09-20T03:25:55.854Z,87.58
2022-09-20T03:28:49.197Z,87.83
2022-09-20T03:31:28.802Z,87.66
2022-09-20T03:34:08.971Z,87.86
2022-09-20T03:36:53.325Z,87.92
2022-09-20T03:39:40.024Z,87.95
2022-09-20T03:42:17.487Z,87.48
2022-09-20T03:45:04.274Z,87.01
2022-09-20T03:47:51.019Z,87.04
2022-09-20T03:50:35.100Z,87.07
2022-09-20T03:53:29.362Z,87.31
2022-09-20T03:56:26.650Z,87.10
2022-09-20T03:59:22.155Z,86.67
2022-09-20T04:02:11.281Z,86.48
2022-09-20T04:04:47.195Z,86.07
2022-09-20T04:07:20.403Z,86.07
2022-09-20T04:10:04.240Z,87.06
2022-09-20T04:12:45.486Z,86.67
2022-09-20T04:15:36.621Z,87.07
2022-09-20T04:18:12.556Z,87.42
2022-09-20T04:20:47.139Z,87.23
2022-09-20T04:23:26.569Z,86.26
2022-09-20T04:25:55.465Z,86.23
2022-09-20T04:28:29.600Z,85.70
2022-09-20T04:31:04.934Z,86.33
2022-09-20T04:33:38.259Z,86.46
2022-09-20T04:36:29.404Z,86.58
2022-09-20T04:39:05.134Z,86.27
2022-09-20T04:42:11.437Z,86.34
2022-09-20T04:45:08.365Z,86.43
2022-09-20T04:48:00.772Z,86.04
2022-09-20T04:50:57.169Z,86.35
2022-09-20T04:53:45.560Z,86.14
2022-09-20T04:56:21.883Z,85.41
2022-09-20T04:59:00.774Z,85.73
2022-09-20T05:02:09.842Z,85.74
2022-09-20T05:05:16.669Z,85.65
2022-09-20T05:08:40.592Z,85.62
2022-09-20T05:11:31.936Z,85.85
2022-09-20T05:14:24.684Z,85.89
2022-09-20T05:17:15.018Z,86.19
2022-09-20T05:19:58.473Z,86.47
2022-09-20T05:22:54.953Z,86.67
2022-09-20T05:25:38.358Z,86.71
2022-09-20T05:28:11.219Z,86.81
2022-09-20T05:30:45.447Z,86.91
2022-09-20T05:33:42.208Z,86.70
2022-09-20T05:36:18.819Z,86.87
2022-09-20T05:38:50.867Z,86.02
2022-09-20T05:41:32.273Z,85.40
2022-09-20T05:44:09.725Z,85.26
2022-09-20T05:46:47.455Z,85.38
2022-09-20T05:49:34.462Z,84.86
2022-09-20T05:52:23.867Z,84.29
2022-09-20T05:55:19.606Z,84.65
2022-09-20T05:58:04.104Z,85.44
2022-09-20T06:00:41.041Z,85.31
2022-09-20T06:03:19.719Z,85.67
2022-09-20T06:05:59.052Z,85.29
2022-09-20T06:08:42.176Z,85.15
2022-09-20T06:11:34.427Z,85.22
2022-09-20T06:14:15.383Z,85.02
2022-09-20T06:16:53.680Z,84.65
2022-09-20T06:19:32.777Z,84.30
2022-09-20T06:22:11.284Z,84.35
2022-09-20T06:24:44.347Z,84.44
2022-09-20T06:27:19.242Z,84.94
2022-09-20T06:29:54.164Z,84.89
2022-09-20T06:32:22.350Z,85.22
2022-09-20T06:34:50.801Z,86.09
2022-09-20T06:37:51.486Z,85.88
2022-09-20T06:40:50.699Z,84.87
2022-09-20T06:43:19.252Z,85.03
2022-09-20T06:45:47.387Z,85.28
2022-09-20T06:48:15.530Z,85.93
2022-09-20T06:50:45.365Z,85.42
2022-09-20T06:53:18.921Z,85.24
2022-09-20T06:55:47.806Z,85.64
2022-09-20T06:58:15.417Z,86.17
2022-09-20T07:00:43.552Z,86.54
2022-09-20T07:03:12.649Z,86.87
2022-09-20T07:05:41.186Z,87.16
2022-09-20T07:08:08.800Z,88.03
2022-09-20T07:10:38.610Z,87.65
2022-09-20T07:13:06.730Z,87.06
2022-09-20T07:15:35.831Z,85.92
2022-09-20T07:18:03.723Z,86.17
2022-09-20T07:20:31.760Z,85.09
2022-09-20T07:22:59.365Z,84.81
2022-09-20T07:25:27.461Z,84.90
2022-09-20T07:27:57.298Z,85.05
2022-09-20T07:30:25.253Z,84.74
2022-09-20T07:32:52.878Z,84.01
2022-09-20T07:35:20.865Z,83.07
2022-09-20T07:37:48.462Z,84.62
2022-09-20T07:40:17.490Z,83.56
2022-09-20T07:42:46.002Z,82.93
2022-09-20T07:45:15.985Z,82.90
2022-09-20T07:47:44.851Z,84.45
2022-09-20T07:50:13.117Z,84.45
2022-09-20T07:52:40.727Z,85.08
2022-09-20T07:55:09.949Z,84.50
2022-09-20T07:57:38.202Z,85.02
2022-09-20T08:00:09.286Z,85.28
2022-09-20T08:02:45.360Z,83.86
2022-09-20T08:05:13.412Z,83.75
2022-09-20T08:07:41.035Z,83.32
2022-09-20T08:10:09.385Z,84.31
2022-09-20T08:15:25.878Z,83.98
2022-09-20T08:17:54.998Z,85.20
2022-09-20T08:20:23.056Z,85.47
2022-09-20T08:23:12.629Z,85.27
2022-09-20T08:25:39.718Z,85.30
2022-09-20T08:28:07.327Z,85.04
2022-09-20T08:30:35.048Z,85.55
2022-09-20T08:33:06.935Z,84.08
2022-09-20T08:35:38.258Z,83.19
2022-09-20T08:40:56.395Z,80.40
2022-09-20T08:43:31.168Z,79.60
2022-09-20T08:46:05.414Z,78.99
2022-09-20T08:48:35.031Z,78.13
2022-09-20T08:51:07.032Z,73.15
2022-09-20T08:53:35.420Z,74.97
2022-09-20T08:56:04.707Z,75.58
2022-09-20T08:58:32.421Z,75.67
2022-09-20T09:01:00.745Z,78.16
2022-09-20T09:03:29.220Z,76.52
2022-09-20T09:05:59.719Z,76.96
2022-09-20T09:08:30.967Z,77.33
2022-09-20T09:11:08.766Z,78.40
2022-09-20T09:13:45.366Z,79.15
2022-09-20T09:16:22.329Z,80.02
2022-09-20T09:18:51.751Z,81.05
2022-09-20T09:21:23.454Z,81.07
2022-09-20T09:23:54.375Z,81.10
2022-09-20T09:26:24.429Z,78.50
2022-09-20T09:29:10.216Z,80.27
2022-09-20T09:31:39.755Z,79.41
2022-09-20T09:34:24.512Z,78.41
2022-09-20T09:36:55.424Z,79.70
2022-09-20T09:39:26.448Z,78.14
2022-09-20T09:41:55.397Z,78.38
2022-09-20T09:44:25.581Z,77.78
2022-09-20T09:46:54.454Z,78.25
2022-09-20T09:49:24.190Z,79.30
2022-09-20T09:52:06.967Z,79.45
2022-09-20T09:54:37.219Z,79.11
2022-09-20T09:57:20.523Z,79.66
2022-09-20T10:00:07.522Z,78.10
2022-09-20T10:03:24.845Z,76.37
2022-09-20T10:06:08.354Z,75.64
2022-09-20T10:08:46.290Z,73.48
2022-09-20T10:11:32.382Z,73.06
2022-09-20T10:14:13.434Z,70.97
2022-09-20T10:17:00.631Z,71.76
2022-09-20T10:19:50.314Z,72.29
2022-09-20T10:22:29.104Z,71.59
2022-09-20T10:25:10.231Z,70.92
2022-09-20T10:27:52.498Z,70.92
2022-09-20T10:30:23.419Z,70.40
2022-09-20T10:33:01.655Z,72.10
2022-09-20T10:35:46.834Z,70.22
2022-09-20T10:38:19.655Z,69.91
2022-09-20T10:41:25.839Z,69.74
2022-09-20T10:44:06.178Z,70.21
2022-09-20T10:46:46.179Z,69.41
2022-09-20T10:49:32.584Z,70.46
2022-09-20T10:52:14.793Z,68.05
2022-09-20T10:55:03.053Z,69.07
2022-09-20T10:58:08.287Z,67.21
2022-09-20T11:00:47.270Z,68.84
2022-09-20T11:03:30.133Z,68.78
2022-09-20T11:06:12.759Z,69.32
2022-09-20T11:08:42.206Z,70.70
2022-09-20T11:11:14.152Z,70.97
2022-09-20T11:13:48.438Z,71.57
2022-09-20T11:16:23.328Z,71.26
2022-09-20T11:18:58.889Z,68.93
2022-09-20T11:21:32.479Z,69.53
2022-09-20T11:24:06.435Z,70.62
2022-09-20T11:26:40.037Z,70.76
2022-09-20T11:29:20.801Z,73.65
2022-09-20T11:31:51.712Z,66.16
2022-09-20T11:34:25.633Z,67.75
2022-09-20T11:36:58.736Z,66.95
2022-09-20T11:39:31.343Z,66.72
2022-09-20T11:42:02.565Z,67.96
2022-09-20T11:44:42.094Z,66.83
2022-09-20T11:47:36.600Z,66.04
2022-09-20T11:51:06.835Z,67.59
2022-09-20T11:57:46.847Z,65.53
2022-09-20T12:00:17.731Z,65.58
2022-09-20T12:02:49.727Z,64.73
2022-09-20T12:05:32.138Z,62.62
2022-09-20T12:08:02.932Z,61.44
2022-09-20T12:10:35.154Z,62.33
2022-09-20T12:13:05.572Z,61.46
2022-09-20T12:15:36.886Z,65.58
2022-09-20T12:18:39.522Z,62.73
2022-09-20T12:21:15.277Z,62.98
2022-09-20T12:24:00.835Z,61.85
2022-09-20T12:26:55.811Z,62.79
2022-09-20T12:29:55.691Z,65.64
2022-09-20T12:32:55.296Z,60.03
2022-09-20T12:36:00.562Z,60.19
2022-09-20T12:38:34.905Z,61.69
2022-09-20T12:41:07.806Z,61.41
2022-09-20T12:43:39.817Z,60.85
2022-09-20T12:46:12.036Z,61.31
2022-09-20T12:48:41.732Z,63.60
2022-09-20T12:51:40.338Z,62.84
2022-09-20T12:54:12.073Z,61.21
2022-09-20T12:56:46.211Z,61.26
2022-09-20T12:59:23.268Z,59.10
2022-09-20T13:01:51.545Z,58.64
2022-09-20T13:04:52.955Z,59.79
2022-09-20T13:07:44.723Z,59.71
2022-09-20T13:10:32.233Z,58.59
2022-09-20T13:13:05.823Z,58.44
2022-09-20T13:15:35.612Z,56.88
2022-09-20T13:18:04.299Z,56.83
2022-09-20T13:20:35.137Z,57.70
2022-09-20T13:23:05.192Z,56.66
2022-09-20T13:25:34.982Z,57.92
2022-09-20T13:28:10.326Z,60.84
2022-09-20T13:30:41.827Z,59.27
2022-09-20T13:33:18.492Z,57.99
2022-09-20T13:35:49.898Z,58.35
2022-09-20T13:38:25.313Z,57.34
2022-09-20T13:40:54.132Z,55.99
2022-09-20T13:43:29.249Z,55.29
2022-09-20T13:45:58.878Z,55.08
2022-09-20T13:48:28.470Z,54.55
2022-09-20T13:50:58.296Z,54.35
2022-09-20T13:53:41.621Z,55.10
2022-09-20T13:56:15.127Z,57.42
2022-09-20T13:58:43.636Z,56.52
2022-09-20T14:01:24.102Z,55.70
2022-09-20T14:03:51.870Z,55.70
2022-09-20T14:06:28.075Z,57.14
2022-09-20T14:08:57.618Z,56.87
2022-09-20T14:11:28.165Z,58.36
2022-09-20T14:13:58.140Z,58.84
2022-09-20T14:16:30.979Z,59.61
2022-09-20T14:19:00.342Z,61.18
2022-09-20T14:21:33.011Z,61.21
2022-09-20T14:24:04.411Z,60.96
2022-09-20T14:26:34.716Z,61.37
2022-09-20T14:29:30.394Z,60.80
2022-09-20T14:32:01.120Z,59.96
2022-09-20T14:34:29.520Z,59.18
2022-09-20T14:37:07.517Z,60.88
2022-09-20T14:39:46.248Z,59.06
2022-09-20T14:42:21.124Z,58.40
2022-09-20T14:44:53.429Z,59.43
2022-09-20T14:47:28.643Z,57.46
2022-09-20T14:49:58.023Z,57.17
2022-09-20T14:52:45.359Z,58.07
2022-09-20T14:55:28.570Z,53.73
2022-09-20T14:58:03.129Z,55.06
2022-09-20T15:00:32.513Z,54.00
2022-09-20T15:03:08.290Z,56.69
2022-09-20T15:05:36.286Z,55.79
2022-09-20T15:08:05.233Z,54.65
2022-09-20T15:10:33.334Z,55.52
2022-09-20T15:13:00.917Z,54.09
2022-09-20T15:15:29.362Z,54.17
2022-09-20T15:17:57.012Z,55.07
2022-09-20T15:20:25.432Z,54.40
2022-09-20T15:22:53.397Z,54.44
2022-09-20T15:25:22.629Z,53.06
2022-09-20T15:27:50.824Z,49.81
2022-09-20T15:30:20.934Z,49.86
2022-09-20T15:32:48.570Z,48.47
2022-09-20T15:35:16.269Z,48.97
2022-09-20T15:37:43.853Z,49.28
2022-09-20T15:40:12.367Z,48.97
2022-09-20T15:42:41.755Z,50.56
2022-09-20T15:45:11.293Z,50.47
2022-09-20T15:47:39.714Z,50.63
2022-09-20T15:50:09.642Z,50.49
2022-09-20T15:52:39.826Z,50.92
2022-09-20T15:55:09.453Z,52.12
2022-09-20T15:57:37.066Z,52.81
2022-09-20T16:00:07.192Z,52.79
2022-09-20T16:02:36.118Z,53.57
2022-09-20T16:05:05.899Z,52.58
2022-09-20T16:07:33.710Z,52.67
2022-09-20T16:10:01.466Z,54.05
2022-09-20T16:12:29.053Z,55.42
2022-09-20T16:14:57.006Z,57.05
2022-09-20T16:17:39.869Z,58.22
2022-09-20T16:20:08.802Z,59.45
2022-09-20T16:22:36.435Z,59.88
2022-09-20T16:25:06.047Z,60.28
2022-09-20T16:27:34.677Z,60.31
2022-09-20T16:30:03.437Z,58.60
2022-09-20T16:32:32.383Z,59.88
2022-09-20T16:35:04.076Z,59.56
2022-09-20T16:37:32.676Z,59.42
2022-09-20T16:40:00.882Z,59.84
2022-09-20T16:42:29.715Z,61.99
2022-09-20T16:44:57.693Z,62.33
2022-09-20T16:47:26.234Z,63.15
2022-09-20T16:49:56.597Z,64.15
2022-09-20T16:52:26.374Z,64.47
2022-09-20T16:54:54.817Z,64.40
2022-09-20T16:57:23.139Z,63.69
2022-09-20T16:59:51.827Z,64.07
2022-09-20T17:02:19.437Z,64.97
2022-09-20T17:04:47.097Z,65.12
2022-09-20T17:07:16.830Z,65.58
2022-09-20T17:09:44.445Z,66.24
2022-09-20T17:12:13.940Z,66.36
2022-09-20T17:14:41.806Z,66.79
2022-09-20T17:17:09.920Z,66.90
2022-09-20T17:19:37.502Z,67.10
2022-09-20T17:22:07.449Z,67.40
2022-09-20T17:24:36.396Z,67.95
2022-09-20T17:27:04.739Z,67.87
2022-09-20T17:29:32.344Z,68.33
2022-09-20T17:32:00.598Z,68.39
2022-09-20T17:34:29.459Z,68.28
2022-09-20T17:36:57.381Z,68.53
2022-09-20T17:39:25.229Z,69.20
2022-09-20T17:41:54.187Z,69.23
2022-09-20T17:44:21.784Z,69.01
2022-09-20T17:46:50.708Z,69.05
2022-09-20T17:49:19.937Z,69.61
2022-09-20T17:51:49.617Z,69.86
2022-09-20T17:54:17.721Z,69.78
2022-09-20T17:56:47.394Z,69.80
2022-09-20T17:59:17.766Z,70.14
2022-09-20T18:01:48.149Z,70.27
2022-09-20T18:04:15.857Z,70.24
2022-09-20T18:06:47.362Z,70.24
2022-09-20T18:09:16.423Z,70.52
2022-09-20T18:11:46.741Z,71.11
2022-09-20T18:14:16.603Z,71.07
2022-09-20T18:16:45.179Z,71.49
2022-09-20T18:19:14.096Z,71.78
2022-09-20T18:21:41.758Z,71.77
2022-09-20T18:24:11.615Z,71.59
2022-09-20T18:26:40.422Z,71.71
2022-09-20T18:29:11.162Z,72.08
2022-09-20T18:31:43.455Z,72.35
2022-09-20T18:34:18.125Z,72.66
2022-09-20T18:36:48.157Z,72.97
2022-09-20T18:39:15.766Z,73.48
2022-09-20T18:41:44.743Z,73.84
2022-09-20T18:44:13.574Z,73.68
2022-09-20T18:46:43.103Z,73.74
2022-09-20T18:49:14.912Z,73.78
2022-09-20T18:51:43.889Z,73.78
2022-09-20T18:54:12.665Z,73.54
2022-09-20T18:56:42.594Z,73.10
2022-09-20T18:59:15.852Z,72.78
2022-09-20T19:02:14.600Z,74.88
2022-09-20T19:05:11.864Z,76.46
2022-09-20T19:07:49.944Z,76.54
2022-09-20T19:10:25.997Z,76.78
2022-09-20T19:13:01.111Z,77.09
2022-09-20T19:15:41.695Z,77.64
2022-09-20T19:18:24.050Z,78.14
2022-09-20T19:20:57.600Z,78.62
2022-09-20T19:23:42.855Z,78.63
2022-09-20T19:26:20.104Z,78.94
2022-09-20T19:28:48.965Z,79.07
2022-09-20T19:31:23.069Z,79.17
2022-09-20T19:33:54.800Z,79.37
2022-09-20T19:36:23.731Z,79.36
2022-09-20T19:39:03.810Z,79.64
2022-09-20T19:41:41.520Z,79.86
2022-09-20T19:44:22.805Z,79.86
2022-09-20T19:47:02.691Z,79.73
2022-09-20T19:49:42.746Z,80.00
2022-09-20T19:52:13.329Z,79.77
2022-09-20T19:54:46.267Z,80.06
2022-09-20T19:57:20.158Z,80.14
2022-09-20T19:59:49.109Z,80.08
2022-09-20T20:02:17.736Z,80.34
2022-09-20T20:04:47.252Z,80.17
2022-09-20T20:07:27.752Z,80.10
2022-09-20T20:10:03.526Z,79.92
2022-09-20T20:12:36.472Z,79.98
2022-09-20T20:15:17.833Z,79.89
2022-09-20T20:17:54.420Z,79.71
2022-09-20T20:20:33.766Z,79.64
2022-09-20T20:23:22.098Z,79.58
2022-09-20T20:25:59.942Z,79.70
2022-09-20T20:28:27.804Z,79.57
2022-09-20T20:30:59.208Z,79.56
2022-09-20T20:33:27.590Z,79.63
2022-09-20T20:35:57.632Z,79.44
2022-09-20T20:38:26.585Z,79.97
2022-09-20T20:41:04.724Z,79.40
2022-09-20T20:43:32.974Z,80.04
2022-09-20T20:46:01.146Z,80.26
2022-09-20T20:48:28.941Z,81.06
2022-09-20T20:51:05.934Z,80.84
2022-09-20T20:53:34.497Z,80.68
2022-09-20T20:56:03.718Z,80.98
2022-09-20T20:58:33.261Z,80.88
2022-09-20T21:01:08.792Z,81.43
2022-09-20T21:03:36.845Z,81.02
2022-09-20T21:06:06.340Z,81.03
2022-09-20T21:08:35.851Z,81.16
2022-09-20T21:11:06.101Z,81.17
2022-09-20T21:13:35.209Z,81.63
2022-09-20T21:16:05.067Z,82.16
2022-09-20T21:18:34.648Z,83.49
2022-09-20T21:21:03.530Z,82.26
2022-09-20T21:23:36.237Z,82.57
2022-09-20T21:26:08.426Z,82.25
2022-09-20T21:28:37.850Z,82.49
2022-09-20T21:31:06.905Z,81.73
2022-09-20T21:33:36.097Z,82.77
2022-09-20T21:36:04.845Z,82.78
2022-09-20T21:38:34.534Z,82.56
2022-09-20T21:41:04.986Z,82.78
2022-09-20T21:43:32.830Z,82.76
2022-09-20T21:46:00.901Z,83.45
2022-09-20T21:48:29.892Z,83.37
2022-09-20T21:51:05.565Z,83.45
2022-09-20T21:53:35.020Z,83.22
2022-09-20T21:56:04.851Z,83.28
2022-09-20T21:58:32.750Z,83.33
2022-09-20T22:01:02.302Z,83.53
2022-09-20T22:03:34.842Z,83.37
2022-09-20T22:06:08.687Z,83.37
2022-09-20T22:08:39.666Z,83.53
2022-09-20T22:11:12.216Z,83.47
2022-09-20T22:13:43.254Z,82.91
2022-09-20T22:16:12.953Z,83.10
2022-09-20T22:18:42.002Z,83.20
2022-09-20T22:21:12.199Z,83.03
2022-09-20T22:23:42.300Z,82.94
2022-09-20T22:26:13.159Z,82.78
2022-09-20T22:28:41.306Z,82.77
2022-09-20T22:31:11.834Z,82.34
2022-09-20T22:33:43.362Z,82.49
2022-09-20T22:36:14.108Z,82.67
2022-09-20T22:38:43.705Z,82.87
2022-09-20T22:41:12.844Z,83.19
2022-09-20T22:43:41.697Z,83.05
2022-09-20T22:46:11.397Z,83.14
2022-09-20T22:48:40.036Z,83.12
2022-09-20T22:51:09.518Z,82.84
2022-09-20T22:53:38.184Z,82.78
2022-09-20T22:56:10.277Z,82.64
2022-09-20T22:58:40.805Z,82.91
2022-09-20T23:01:11.050Z,83.10
2022-09-20T23:03:39.398Z,82.96
2022-09-20T23:06:15.678Z,83.17
2022-09-20T23:08:43.763Z,83.12
2022-09-20T23:11:13.127Z,83.17
2022-09-20T23:13:40.798Z,82.83
2022-09-20T23:16:13.824Z,83.08
2022-09-20T23:18:41.522Z,80.47
2022-09-20T23:21:09.696Z,80.07
2022-09-20T23:23:37.856Z,80.62
2022-09-20T23:26:08.496Z,81.11
2022-09-20T23:28:39.435Z,81.49
2022-09-20T23:31:09.935Z,81.41
2022-09-20T23:33:37.731Z,81.83
2022-09-20T23:36:07.607Z,82.01
2022-09-20T23:38:35.386Z,82.29
2022-09-20T23:41:04.683Z,83.04
2022-09-20T23:43:32.641Z,82.57
2022-09-20T23:46:02.122Z,83.12
2022-09-20T23:48:30.639Z,82.83
2022-09-20T23:50:58.909Z,82.70
2022-09-20T23:53:26.514Z,83.41
2022-09-20T23:55:54.739Z,83.80
2022-09-20T23:58:22.554Z,83.87
